KWJF/WJF METAR and TAF weather

Enter ICAO airport designator
Station Type Date Time Source
KWJF METAR 2020/09/26 20:56 UTC NOAA

KWJF 262056Z 30008KT 5SM HZ CLR 32/07 A2994 RMK AO2 SLP118 T03220072 58022


Station Type Date Time Source
KWJF Decoded METAR 2020/09/26 20:56 UTC NOAA

LANCASTER FOX AIRFIELD, CA, United States (KWJF) 34-44N 118-13W
Sep 26, 2020 - 04:56 PM EDT / 2020.09.26 2056 UTC
Wind: from the WNW (300 degrees) at 9 MPH (8 KT):0
Visibility: 5 mile(s):0
Sky conditions: clear
Weather: haze
Temperature: 90.0 F (32.2 C)
Dew Point: 45.0 F (7.2 C)
Relative Humidity: 21%
Pressure (altimeter): 29.94 in. Hg (1013 hPa)
Pressure tendency: 0.06 inches (2.2 hPa) lower than three hours ago
ob: KWJF 262056Z 30008KT 5SM HZ CLR 32/07 A2994 RMK AO2 SLP118 T03220072 58022
cycle: 21

Station Type Date Time Source
KWJF TAF 2020/09/26 18:45 UTC NOAA

TAF KWJF 261740Z 2618/2718 29008KT P6SM SKC
FM262000 28012KT P6SM SKC
FM270000 27017G23KT P6SM SKC
FM270500 27013KT P6SM SKC
FM270700 27008KT P6SM SKC
FM271400 VRB03KT P6SM SKC

Example: see airport list